createdAt,value
2023-05-22T00:01:46.925Z,100.00
2023-05-22T00:04:21.130Z,100.00
2023-05-22T00:06:49.141Z,100.00
2023-05-22T00:09:16.597Z,100.00
2023-05-22T00:11:43.965Z,100.00
2023-05-22T00:14:13.393Z,100.00
2023-05-22T00:16:41.371Z,100.00
2023-05-22T00:19:13.636Z,100.00
2023-05-22T00:21:41.084Z,100.00
2023-05-22T00:24:08.547Z,100.00
2023-05-22T00:26:35.872Z,100.00
2023-05-22T00:29:03.683Z,100.00
2023-05-22T00:31:30.914Z,100.00
2023-05-22T00:33:59.202Z,100.00
2023-05-22T00:40:52.570Z,100.00
2023-05-22T00:43:20.131Z,100.00
2023-05-22T00:45:47.720Z,100.00
2023-05-22T00:48:15.650Z,100.00
2023-05-22T00:50:44.422Z,100.00
2023-05-22T00:53:12.446Z,100.00
2023-05-22T00:55:40.237Z,100.00
2023-05-22T00:58:09.721Z,100.00
2023-05-22T01:00:39.471Z,100.00
2023-05-22T01:03:10.116Z,100.00
2023-05-22T01:05:38.180Z,100.00
2023-05-22T01:08:07.441Z,100.00
2023-05-22T01:10:36.671Z,100.00
2023-05-22T01:13:42.947Z,100.00
2023-05-22T01:16:19.296Z,100.00
2023-05-22T01:19:05.269Z,100.00
2023-05-22T01:22:01.676Z,100.00
2023-05-22T01:24:53.116Z,100.00
2023-05-22T01:27:35.424Z,100.00
2023-05-22T01:30:56.070Z,100.00
2023-05-22T01:33:27.516Z,100.00
2023-05-22T01:36:00.027Z,100.00
2023-05-22T01:38:27.819Z,100.00
2023-05-22T01:40:56.248Z,100.00
2023-05-22T01:43:23.588Z,100.00
2023-05-22T01:45:51.555Z,100.00
2023-05-22T01:48:18.819Z,100.00
2023-05-22T01:50:51.232Z,100.00
2023-05-22T01:53:28.399Z,100.00
2023-05-22T01:56:07.808Z,100.00
2023-05-22T01:58:45.057Z,100.00
2023-05-22T02:01:15.037Z,100.00
2023-05-22T02:03:42.849Z,100.00
2023-05-22T02:06:13.181Z,100.00
2023-05-22T02:08:43.087Z,100.00
2023-05-22T02:11:15.011Z,100.00
2023-05-22T02:13:43.060Z,100.00
2023-05-22T02:16:12.342Z,100.00
2023-05-22T02:18:42.048Z,100.00
2023-05-22T02:21:09.516Z,100.00
2023-05-22T02:23:37.977Z,100.00
2023-05-22T02:26:05.832Z,100.00
2023-05-22T02:28:33.368Z,100.00
2023-05-22T02:31:01.129Z,100.00
2023-05-22T02:33:29.937Z,100.00
2023-05-22T02:35:57.497Z,100.00
2023-05-22T02:38:24.788Z,100.00
2023-05-22T02:40:52.497Z,100.00
2023-05-22T02:43:21.236Z,100.00
2023-05-22T02:45:48.561Z,100.00
2023-05-22T02:48:16.888Z,100.00
2023-05-22T02:50:44.349Z,100.00
2023-05-22T02:53:12.072Z,100.00
2023-05-22T02:55:40.310Z,100.00
2023-05-22T02:58:11.313Z,100.00
2023-05-22T03:00:38.938Z,100.00
2023-05-22T03:03:07.310Z,100.00
2023-05-22T03:05:35.368Z,100.00
2023-05-22T03:08:02.698Z,100.00
2023-05-22T03:10:31.268Z,100.00
2023-05-22T03:12:58.518Z,100.00
2023-05-22T03:15:26.171Z,100.00
2023-05-22T03:17:58.093Z,100.00
2023-05-22T03:20:25.550Z,100.00
2023-05-22T03:22:52.807Z,100.00
2023-05-22T03:25:21.563Z,100.00
2023-05-22T03:27:48.852Z,100.00
2023-05-22T03:30:16.327Z,100.00
2023-05-22T03:32:53.257Z,100.00
2023-05-22T03:35:20.986Z,100.00
2023-05-22T03:37:48.402Z,100.00
2023-05-22T03:40:18.170Z,100.00
2023-05-22T03:42:45.419Z,100.00
2023-05-22T03:45:13.298Z,100.00
2023-05-22T03:47:40.800Z,100.00
2023-05-22T03:50:08.846Z,100.00
2023-05-22T03:52:36.109Z,100.00
2023-05-22T03:55:05.516Z,100.00
2023-05-22T03:57:33.128Z,100.00
2023-05-22T04:00:09.441Z,100.00
2023-05-22T04:02:45.268Z,100.00
2023-05-22T04:05:13.340Z,100.00
2023-05-22T04:07:40.718Z,100.00
2023-05-22T04:10:08.487Z,100.00
2023-05-22T04:12:37.017Z,100.00
2023-05-22T04:15:04.596Z,100.00
2023-05-22T04:17:33.971Z,100.00
2023-05-22T04:20:01.529Z,100.00
2023-05-22T04:22:31.004Z,100.00
2023-05-22T04:24:58.279Z,100.00
2023-05-22T04:27:26.525Z,100.00
2023-05-22T04:29:53.799Z,100.00
2023-05-22T04:32:25.238Z,100.00
2023-05-22T04:34:52.553Z,100.00
2023-05-22T04:37:20.533Z,100.00
2023-05-22T04:39:52.955Z,100.00
2023-05-22T04:42:20.566Z,100.00
2023-05-22T04:44:48.382Z,100.00
2023-05-22T04:47:15.588Z,100.00
2023-05-22T04:49:43.770Z,100.00
2023-05-22T04:52:12.080Z,100.00
2023-05-22T04:54:39.560Z,100.00
2023-05-22T04:57:06.807Z,100.00
2023-05-22T04:59:39.451Z,100.00
2023-05-22T05:02:07.234Z,100.00
2023-05-22T05:04:36.589Z,100.00
2023-05-22T05:07:05.108Z,100.00
2023-05-22T05:09:32.793Z,100.00
2023-05-22T05:12:02.222Z,100.00
2023-05-22T05:14:29.914Z,100.00
2023-05-22T05:16:58.696Z,100.00
2023-05-22T05:19:26.384Z,100.00
2023-05-22T05:21:53.689Z,100.00
2023-05-22T05:24:22.117Z,100.00
2023-05-22T05:26:51.170Z,100.00
2023-05-22T05:29:20.140Z,100.00
2023-05-22T05:31:54.111Z,100.00
2023-05-22T05:34:31.883Z,100.00
2023-05-22T05:37:05.303Z,100.00
2023-05-22T05:39:33.468Z,100.00
2023-05-22T05:42:03.307Z,100.00
2023-05-22T05:44:30.663Z,100.00
2023-05-22T05:46:58.170Z,100.00
2023-05-22T05:49:27.102Z,100.00
2023-05-22T05:51:55.310Z,100.00
2023-05-22T05:54:23.256Z,100.00
2023-05-22T05:56:53.405Z,100.00
2023-05-22T05:59:20.749Z,100.00
2023-05-22T06:02:20.231Z,100.00
2023-05-22T06:04:48.494Z,100.00
2023-05-22T06:07:18.296Z,100.00
2023-05-22T06:09:47.409Z,100.00
2023-05-22T06:12:33.376Z,100.00
2023-05-22T06:15:00.755Z,100.00
2023-05-22T06:17:28.705Z,100.00
2023-05-22T06:19:56.580Z,100.00
2023-05-22T06:22:25.796Z,100.00
2023-05-22T06:24:56.435Z,100.00
2023-05-22T06:27:29.857Z,100.00
2023-05-22T06:29:57.172Z,100.00
2023-05-22T06:32:28.588Z,100.00
2023-05-22T06:34:55.867Z,100.00
2023-05-22T06:37:23.635Z,100.00
2023-05-22T06:39:51.961Z,100.00
2023-05-22T06:42:38.879Z,100.00
2023-05-22T06:45:24.745Z,100.00
2023-05-22T06:48:12.311Z,100.00
2023-05-22T06:50:50.895Z,100.00
2023-05-22T06:53:18.371Z,100.00
2023-05-22T06:55:45.568Z,100.00
2023-05-22T06:58:21.623Z,100.00
2023-05-22T07:00:50.102Z,99.40
2023-05-22T07:03:23.053Z,100.00
2023-05-22T07:06:12.396Z,100.00
2023-05-22T07:08:40.044Z,96.02
2023-05-22T07:11:08.707Z,97.65
2023-05-22T07:13:36.599Z,94.35
2023-05-22T07:16:03.956Z,100.00
2023-05-22T07:18:31.426Z,94.85
2023-05-22T07:20:59.005Z,93.55
2023-05-22T07:23:26.488Z,92.78
2023-05-22T07:25:53.898Z,89.89
2023-05-22T07:28:24.670Z,93.57
2023-05-22T07:31:02.412Z,95.39
2023-05-22T07:33:30.867Z,98.53
2023-05-22T07:35:58.197Z,92.61
2023-05-22T07:38:25.997Z,94.86
2023-05-22T07:40:59.502Z,91.27
2023-05-22T07:43:28.170Z,88.99
2023-05-22T07:45:56.553Z,86.05
2023-05-22T07:48:26.797Z,90.45
2023-05-22T07:50:54.860Z,87.48
2023-05-22T07:53:21.998Z,86.18
2023-05-22T07:55:52.071Z,82.27
2023-05-22T07:58:19.705Z,85.36
2023-05-22T08:00:47.810Z,85.19
2023-05-22T08:03:15.250Z,81.51
2023-05-22T08:05:43.077Z,81.30
2023-05-22T08:08:17.859Z,83.04
2023-05-22T08:11:14.458Z,78.60
2023-05-22T08:13:43.016Z,80.52
2023-05-22T08:16:11.280Z,77.19
2023-05-22T08:18:38.534Z,79.66
2023-05-22T08:21:05.888Z,80.58
2023-05-22T08:23:36.458Z,72.84
2023-05-22T08:26:04.215Z,71.22
2023-05-22T08:28:31.346Z,74.98
2023-05-22T08:30:58.420Z,74.56
2023-05-22T08:33:26.856Z,72.47
2023-05-22T08:35:54.176Z,75.64
2023-05-22T08:38:22.112Z,77.67
2023-05-22T08:40:50.364Z,79.74
2023-05-22T08:43:20.928Z,80.53
2023-05-22T08:45:59.785Z,77.11
2023-05-22T08:48:31.923Z,76.09
2023-05-22T08:51:05.915Z,73.97
2023-05-22T08:53:35.874Z,75.21
2023-05-22T08:56:06.056Z,77.41
2023-05-22T08:58:38.143Z,75.07
2023-05-22T09:01:07.143Z,73.97
2023-05-22T09:03:36.102Z,69.75
2023-05-22T09:06:03.706Z,69.62
2023-05-22T09:08:31.016Z,69.11
2023-05-22T09:10:58.455Z,71.30
2023-05-22T09:13:29.351Z,69.25
2023-05-22T09:16:11.033Z,72.73
2023-05-22T09:18:39.297Z,74.84
2023-05-22T09:24:43.480Z,73.20
2023-05-22T09:27:11.980Z,74.74
2023-05-22T09:29:49.800Z,77.14
2023-05-22T09:32:18.703Z,77.72
2023-05-22T09:34:47.068Z,72.37
2023-05-22T09:37:15.161Z,75.03
2023-05-22T09:42:35.836Z,76.88
2023-05-22T09:45:07.248Z,78.50
2023-05-22T09:47:38.196Z,78.03
2023-05-22T09:50:11.623Z,76.40
2023-05-22T09:52:41.097Z,80.95
2023-05-22T09:55:12.295Z,83.17
2023-05-22T09:57:54.042Z,85.32
2023-05-22T10:00:25.484Z,82.84
2023-05-22T10:03:08.367Z,84.72
2023-05-22T10:05:39.088Z,88.27
2023-05-22T10:08:37.474Z,85.59
2023-05-22T10:11:09.236Z,84.72
2023-05-22T10:13:37.969Z,84.37
2023-05-22T10:16:07.851Z,84.20
2023-05-22T10:18:38.510Z,82.56
2023-05-22T10:21:07.158Z,87.47
2023-05-22T10:23:35.166Z,85.46
2023-05-22T10:26:06.663Z,84.38
2023-05-22T10:28:54.233Z,84.12
2023-05-22T10:31:45.997Z,82.38
2023-05-22T10:34:46.982Z,87.31
2023-05-22T10:37:41.977Z,85.45
2023-05-22T10:40:18.288Z,81.05
2023-05-22T10:42:48.670Z,76.73
2023-05-22T10:45:27.912Z,74.53
2023-05-22T10:48:12.475Z,72.61
2023-05-22T10:50:53.924Z,73.09
2023-05-22T10:53:26.250Z,71.26
2023-05-22T10:55:57.735Z,72.56
2023-05-22T10:58:31.842Z,64.95
2023-05-22T11:01:16.820Z,70.64
2023-05-22T11:04:11.899Z,64.07
2023-05-22T11:07:06.802Z,68.13
2023-05-22T11:09:41.542Z,66.39
2023-05-22T11:12:31.016Z,66.02
2023-05-22T11:15:12.881Z,62.52
2023-05-22T11:17:53.613Z,70.01
2023-05-22T11:20:30.748Z,69.05
2023-05-22T11:23:08.940Z,71.68
2023-05-22T11:25:41.242Z,68.08
2023-05-22T11:28:10.677Z,74.46
2023-05-22T11:30:47.918Z,71.19
2023-05-22T11:33:18.886Z,70.80
2023-05-22T11:35:51.588Z,70.47
2023-05-22T11:38:21.744Z,69.28
2023-05-22T11:40:54.856Z,75.42
2023-05-22T11:43:36.048Z,71.09
2023-05-22T11:46:22.622Z,70.93
2023-05-22T11:48:54.154Z,71.78
2023-05-22T11:51:24.362Z,66.43
2023-05-22T11:53:52.168Z,66.04
2023-05-22T11:56:26.334Z,68.03
2023-05-22T11:58:56.245Z,64.99
2023-05-22T12:01:25.734Z,65.13
2023-05-22T12:03:56.178Z,65.27
2023-05-22T12:06:27.516Z,65.26
2023-05-22T12:08:57.988Z,66.70
2023-05-22T12:11:28.676Z,66.18
2023-05-22T12:14:01.873Z,66.21
2023-05-22T12:16:38.122Z,66.89
2023-05-22T12:19:12.485Z,68.00
2023-05-22T12:21:50.625Z,67.39
2023-05-22T12:24:23.294Z,68.19
2023-05-22T12:26:52.484Z,67.76
2023-05-22T12:29:24.707Z,71.41
2023-05-22T12:31:59.124Z,66.44
2023-05-22T12:34:26.696Z,68.61
2023-05-22T12:36:59.759Z,66.98
2023-05-22T12:39:31.075Z,69.14
2023-05-22T12:41:58.319Z,64.83
2023-05-22T12:44:27.804Z,63.16
2023-05-22T12:46:55.038Z,65.61
2023-05-22T12:49:25.979Z,64.13
2023-05-22T12:51:54.044Z,63.69
2023-05-22T12:54:22.799Z,67.67
2023-05-22T12:56:52.793Z,66.39
2023-05-22T12:59:22.248Z,68.78
2023-05-22T13:01:56.948Z,67.30
2023-05-22T13:04:24.690Z,67.25
2023-05-22T13:06:51.840Z,70.81
2023-05-22T13:09:20.150Z,64.70
2023-05-22T13:11:50.224Z,73.76
2023-05-22T13:14:20.169Z,71.61
2023-05-22T13:16:50.133Z,63.74
2023-05-22T13:19:32.801Z,65.54
2023-05-22T13:22:03.373Z,66.37
2023-05-22T13:24:30.480Z,66.72
2023-05-22T13:27:01.944Z,65.19
2023-05-22T13:29:29.272Z,66.79
2023-05-22T13:31:59.218Z,64.05
2023-05-22T13:34:28.765Z,69.07
2023-05-22T13:36:58.566Z,68.63
2023-05-22T13:39:29.243Z,67.64
2023-05-22T13:41:57.202Z,61.28
2023-05-22T13:44:28.426Z,64.25
2023-05-22T13:49:47.241Z,63.95
2023-05-22T13:52:17.550Z,62.25
2023-05-22T13:54:45.027Z,64.21
2023-05-22T13:57:23.174Z,65.46
2023-05-22T13:59:50.430Z,62.99
2023-05-22T14:02:22.617Z,63.33
2023-05-22T14:04:54.003Z,63.42
2023-05-22T14:07:25.255Z,66.84
2023-05-22T14:10:05.448Z,63.45
2023-05-22T14:12:38.489Z,62.68
2023-05-22T14:15:18.911Z,65.52
2023-05-22T14:17:52.222Z,63.77
2023-05-22T14:20:41.816Z,65.16
2023-05-22T14:23:09.214Z,63.85
2023-05-22T14:25:36.367Z,63.15
2023-05-22T14:28:03.640Z,63.78
2023-05-22T14:30:37.126Z,62.49
2023-05-22T14:33:04.678Z,65.05
2023-05-22T14:35:41.183Z,63.14
2023-05-22T14:38:11.075Z,63.29
2023-05-22T14:40:38.224Z,65.83
2023-05-22T14:43:08.978Z,62.73
2023-05-22T14:45:36.327Z,66.28
2023-05-22T14:48:10.178Z,63.19
2023-05-22T14:50:48.303Z,60.88
2023-05-22T14:53:16.102Z,61.24
2023-05-22T14:55:43.308Z,62.47
2023-05-22T14:58:16.142Z,61.18
2023-05-22T15:00:46.287Z,62.73
2023-05-22T15:03:13.924Z,59.22
2023-05-22T15:05:47.679Z,62.19
2023-05-22T15:08:16.915Z,62.68
2023-05-22T15:10:44.982Z,61.27
2023-05-22T15:13:18.022Z,62.28
2023-05-22T15:15:51.365Z,61.37
2023-05-22T15:18:22.100Z,62.16
2023-05-22T15:20:51.484Z,61.70
2023-05-22T15:23:18.755Z,61.09
2023-05-22T15:25:49.151Z,61.97
2023-05-22T15:28:23.768Z,61.74
2023-05-22T15:30:53.738Z,63.83
2023-05-22T15:33:25.151Z,63.36
2023-05-22T15:35:52.437Z,63.73
2023-05-22T15:38:25.009Z,65.57
2023-05-22T15:40:52.262Z,65.25
2023-05-22T15:43:20.034Z,65.17
2023-05-22T15:45:54.058Z,62.74
2023-05-22T15:48:21.607Z,62.19
2023-05-22T15:50:50.476Z,63.33
2023-05-22T15:53:17.699Z,64.16
2023-05-22T15:55:44.875Z,63.13
2023-05-22T15:58:14.720Z,63.28
2023-05-22T16:00:44.399Z,63.56
2023-05-22T16:03:11.782Z,64.18
2023-05-22T16:05:40.270Z,62.49
2023-05-22T16:08:11.314Z,62.87
2023-05-22T16:10:41.618Z,63.67
2023-05-22T16:13:11.491Z,64.54
2023-05-22T16:15:40.567Z,62.49
2023-05-22T16:18:09.177Z,64.29
2023-05-22T16:20:36.821Z,62.85
2023-05-22T16:23:06.457Z,61.01
2023-05-22T16:25:36.695Z,63.26
2023-05-22T16:28:07.169Z,61.18
2023-05-22T16:30:37.306Z,58.65
2023-05-22T16:33:04.710Z,61.05
2023-05-22T16:35:32.830Z,60.40
2023-05-22T16:38:02.390Z,58.93
2023-05-22T16:40:29.863Z,61.36
2023-05-22T16:42:57.200Z,61.69
2023-05-22T16:48:14.148Z,61.91
2023-05-22T16:50:42.576Z,62.92
2023-05-22T16:53:13.737Z,65.61
2023-05-22T16:55:45.383Z,65.83
2023-05-22T16:58:14.807Z,65.65
2023-05-22T17:00:48.371Z,68.29
2023-05-22T17:03:18.660Z,68.13
2023-05-22T17:05:51.170Z,69.73
2023-05-22T17:08:21.257Z,71.56
2023-05-22T17:10:52.827Z,72.00
2023-05-22T17:13:23.802Z,70.88
2023-05-22T17:15:53.914Z,72.66
2023-05-22T17:18:22.299Z,72.41
2023-05-22T17:20:51.214Z,73.64
2023-05-22T17:23:21.309Z,74.14
2023-05-22T17:25:51.042Z,76.13
2023-05-22T17:28:21.427Z,75.06
2023-05-22T17:30:56.034Z,76.43
2023-05-22T17:33:25.865Z,77.75
2023-05-22T17:35:56.062Z,78.10
2023-05-22T17:38:23.529Z,78.81
2023-05-22T17:40:52.155Z,78.57
2023-05-22T17:43:19.880Z,79.41
2023-05-22T17:45:50.207Z,79.30
2023-05-22T17:48:23.497Z,78.60
2023-05-22T17:50:52.083Z,79.92
2023-05-22T17:53:20.843Z,80.60
2023-05-22T17:55:49.898Z,82.64
2023-05-22T17:58:17.256Z,84.57
2023-05-22T18:00:45.748Z,85.03
2023-05-22T18:03:13.405Z,87.64
2023-05-22T18:05:40.658Z,87.59
2023-05-22T18:08:07.815Z,88.30
2023-05-22T18:10:35.129Z,88.96
2023-05-22T18:13:02.712Z,88.69
2023-05-22T18:15:35.079Z,91.38
2023-05-22T18:18:05.792Z,92.66
2023-05-22T18:20:33.492Z,93.23
2023-05-22T18:23:03.856Z,91.05
2023-05-22T18:25:31.013Z,92.50
2023-05-22T18:27:58.396Z,92.32
2023-05-22T18:30:25.598Z,93.52
2023-05-22T18:32:52.768Z,93.75
2023-05-22T18:35:19.958Z,92.73
2023-05-22T18:37:50.168Z,94.54
2023-05-22T18:40:17.320Z,93.61
2023-05-22T18:42:44.494Z,93.99
2023-05-22T18:45:12.158Z,93.43
2023-05-22T18:47:40.251Z,94.66
2023-05-22T18:50:13.471Z,93.42
2023-05-22T18:52:43.063Z,94.29
2023-05-22T18:55:10.490Z,94.84
2023-05-22T18:57:37.884Z,94.22
2023-05-22T19:00:12.553Z,95.42
2023-05-22T19:02:42.738Z,97.70
2023-05-22T19:05:12.761Z,97.15
2023-05-22T19:07:39.871Z,96.79
2023-05-22T19:10:08.292Z,96.07
2023-05-22T19:12:36.572Z,96.95
2023-05-22T19:15:13.782Z,96.88
2023-05-22T19:17:46.062Z,98.38
2023-05-22T19:20:16.357Z,100.00
2023-05-22T19:22:46.431Z,100.00
2023-05-22T19:25:17.187Z,100.00
2023-05-22T19:27:51.166Z,100.00
2023-05-22T19:30:25.014Z,100.00
2023-05-22T19:32:58.522Z,100.00
2023-05-22T19:35:28.680Z,100.00
2023-05-22T19:38:01.617Z,100.00
2023-05-22T19:40:35.359Z,100.00
2023-05-22T19:43:03.072Z,100.00
2023-05-22T19:45:35.652Z,100.00
2023-05-22T19:48:03.379Z,100.00
2023-05-22T19:50:31.045Z,100.00
2023-05-22T19:53:01.635Z,100.00
2023-05-22T19:55:28.952Z,100.00
2023-05-22T19:57:57.081Z,100.00
2023-05-22T20:00:28.475Z,100.00
2023-05-22T20:02:56.312Z,100.00
2023-05-22T20:05:27.036Z,100.00
2023-05-22T20:07:58.559Z,100.00
2023-05-22T20:10:26.148Z,100.00
2023-05-22T20:12:57.462Z,100.00
2023-05-22T20:15:25.085Z,100.00
2023-05-22T20:17:55.858Z,100.00
2023-05-22T20:20:29.824Z,100.00
2023-05-22T20:22:58.612Z,100.00
2023-05-22T20:25:36.837Z,100.00
2023-05-22T20:28:04.848Z,100.00
2023-05-22T20:30:33.155Z,100.00
2023-05-22T20:33:01.347Z,98.80
2023-05-22T20:35:32.370Z,97.08
2023-05-22T20:38:07.014Z,97.40
2023-05-22T20:40:36.304Z,97.43
2023-05-22T20:43:06.834Z,96.27
2023-05-22T20:45:37.488Z,95.25
2023-05-22T20:48:04.798Z,95.37
2023-05-22T20:50:39.799Z,94.85
2023-05-22T20:53:07.119Z,95.21
2023-05-22T20:55:34.460Z,96.38
2023-05-22T20:58:04.931Z,93.52
2023-05-22T21:00:32.194Z,95.07
2023-05-22T21:03:02.436Z,97.55
2023-05-22T21:05:29.897Z,96.67
2023-05-22T21:08:06.970Z,98.05
2023-05-22T21:10:37.388Z,97.36
2023-05-22T21:13:07.858Z,99.18
2023-05-22T21:15:35.440Z,100.00
2023-05-22T21:18:02.866Z,100.00
2023-05-22T21:20:30.264Z,100.00
2023-05-22T21:22:57.332Z,100.00
2023-05-22T21:25:27.502Z,100.00
2023-05-22T21:27:55.290Z,100.00
2023-05-22T21:30:22.486Z,100.00
2023-05-22T21:32:52.566Z,100.00
2023-05-22T21:35:24.781Z,100.00
2023-05-22T21:37:52.818Z,100.00
2023-05-22T21:40:30.444Z,100.00
2023-05-22T21:43:02.414Z,100.00
2023-05-22T21:45:38.889Z,100.00
2023-05-22T21:48:06.294Z,100.00
2023-05-22T21:50:33.640Z,100.00
2023-05-22T21:53:00.986Z,100.00
2023-05-22T21:55:28.162Z,100.00
2023-05-22T21:57:56.376Z,100.00
2023-05-22T22:00:23.687Z,100.00
2023-05-22T22:02:51.029Z,100.00
2023-05-22T22:05:18.900Z,100.00
2023-05-22T22:07:46.099Z,100.00
2023-05-22T22:10:13.262Z,100.00
2023-05-22T22:12:40.478Z,100.00
2023-05-22T22:15:08.642Z,100.00
2023-05-22T22:17:36.196Z,100.00
2023-05-22T22:20:04.085Z,100.00
2023-05-22T22:22:31.266Z,100.00
2023-05-22T22:25:01.596Z,100.00
2023-05-22T22:27:29.778Z,100.00
2023-05-22T22:30:02.851Z,100.00
2023-05-22T22:32:32.144Z,100.00
2023-05-22T22:34:59.296Z,100.00
2023-05-22T22:37:26.432Z,100.00
2023-05-22T22:39:53.556Z,100.00
2023-05-22T22:42:21.866Z,100.00
2023-05-22T22:44:48.969Z,100.00
2023-05-22T22:47:16.091Z,100.00
2023-05-22T22:49:43.221Z,100.00
2023-05-22T22:52:12.523Z,100.00
2023-05-22T22:54:40.212Z,100.00
2023-05-22T22:57:08.695Z,100.00
2023-05-22T22:59:43.844Z,100.00
2023-05-22T23:02:15.129Z,100.00
2023-05-22T23:04:42.460Z,100.00
2023-05-22T23:07:09.953Z,100.00
2023-05-22T23:09:40.326Z,100.00
2023-05-22T23:12:11.644Z,100.00
2023-05-22T23:14:39.170Z,100.00
2023-05-22T23:17:12.176Z,100.00
2023-05-22T23:19:45.921Z,100.00
2023-05-22T23:22:21.077Z,100.00
2023-05-22T23:25:15.532Z,100.00
2023-05-22T23:27:43.308Z,100.00
2023-05-22T23:30:28.564Z,100.00
2023-05-22T23:33:03.476Z,100.00
2023-05-22T23:35:43.978Z,100.00
2023-05-22T23:38:11.845Z,100.00
2023-05-22T23:40:39.317Z,100.00
2023-05-22T23:43:15.441Z,100.00
2023-05-22T23:45:45.734Z,100.00
2023-05-22T23:48:13.947Z,100.00
2023-05-22T23:50:41.815Z,100.00
2023-05-22T23:53:14.363Z,100.00
2023-05-22T23:55:46.667Z,100.00
2023-05-22T23:58:18.768Z,100.00
